createdAt,value
2022-11-24T00:00:08.116Z,3.97
2022-11-24T00:02:38.847Z,4.08
2022-11-24T00:05:09.426Z,4.16
2022-11-24T00:07:39.573Z,4.01
2022-11-24T00:10:10.162Z,4.01
2022-11-24T00:12:40.854Z,3.99
2022-11-24T00:15:11.448Z,3.95
2022-11-24T00:17:42.109Z,4
2022-11-24T00:20:12.443Z,3.9
2022-11-24T00:22:42.789Z,3.87
2022-11-24T00:25:13.424Z,3.99
2022-11-24T00:27:44.170Z,3.97
2022-11-24T00:30:14.743Z,4.01
2022-11-24T00:32:45.116Z,3.98
2022-11-24T00:35:15.769Z,4.01
2022-11-24T00:37:46.497Z,4.06
2022-11-24T00:40:17.098Z,4.17
2022-11-24T00:42:47.867Z,4.02
2022-11-24T00:45:18.413Z,3.91
2022-11-24T00:47:49.097Z,4.11
2022-11-24T00:50:19.726Z,4.03
2022-11-24T00:52:50.406Z,4.03
2022-11-24T00:55:20.790Z,4.09
2022-11-24T00:57:51.343Z,4.08
2022-11-24T01:00:22.031Z,4.02
2022-11-24T01:02:52.819Z,3.99
2022-11-24T01:05:23.305Z,3.98
2022-11-24T01:07:53.893Z,4.04
2022-11-24T01:10:24.323Z,3.99
2022-11-24T01:12:54.994Z,3.94
2022-11-24T01:15:25.634Z,3.95
2022-11-24T01:17:56.077Z,3.95
2022-11-24T01:20:26.677Z,3.97
2022-11-24T01:22:57.474Z,3.94
2022-11-24T01:25:28.069Z,3.99
2022-11-24T01:27:58.654Z,3.99
2022-11-24T01:30:29.477Z,4.05
2022-11-24T01:33:00.056Z,4.02
2022-11-24T01:35:30.617Z,3.92
2022-11-24T01:38:01.346Z,4.08
2022-11-24T01:40:31.980Z,4.14
2022-11-24T01:43:02.606Z,4.03
2022-11-24T01:45:33.256Z,4.01
2022-11-24T01:48:03.933Z,3.98
2022-11-24T01:50:34.693Z,3.74
2022-11-24T01:53:05.331Z,3.97
2022-11-24T01:55:35.988Z,3.91
2022-11-24T01:58:06.614Z,3.93
2022-11-24T02:00:37.322Z,4.1
2022-11-24T02:03:07.965Z,4.3
2022-11-24T02:05:38.594Z,4.36
2022-11-24T02:08:09.339Z,4.2
2022-11-24T02:10:39.984Z,3.9
2022-11-24T02:13:10.672Z,3.92
2022-11-24T02:15:41.488Z,4.06
2022-11-24T02:18:11.953Z,3.95
2022-11-24T02:20:42.614Z,3.95
2022-11-24T02:23:13.316Z,4.04
2022-11-24T02:25:44.051Z,3.95
2022-11-24T02:28:14.636Z,4.06
2022-11-24T02:30:44.990Z,4.1
2022-11-24T02:33:15.639Z,4.03
2022-11-24T02:35:46.274Z,3.94
2022-11-24T02:38:16.974Z,4.02
2022-11-24T02:40:47.636Z,4.05
2022-11-24T02:43:17.662Z,4.72
2022-11-24T02:45:47.826Z,4.16
2022-11-24T02:48:18.545Z,4.1
2022-11-24T02:50:49.258Z,4.06
2022-11-24T02:53:19.896Z,4.01
2022-11-24T02:55:50.484Z,3.98
2022-11-24T02:58:21.127Z,4
2022-11-24T03:00:51.916Z,4.03
2022-11-24T03:03:22.467Z,3.99
2022-11-24T03:05:53.238Z,4.01
2022-11-24T03:08:23.948Z,4.09
2022-11-24T03:10:54.474Z,3.86
2022-11-24T03:13:25.141Z,3.88
2022-11-24T03:15:55.857Z,3.89
2022-11-24T03:18:26.474Z,3.88
2022-11-24T03:20:57.125Z,3.86
2022-11-24T03:23:27.789Z,4
2022-11-24T03:25:58.503Z,3.87
2022-11-24T03:28:29.099Z,3.91
2022-11-24T03:30:59.812Z,3.98
2022-11-24T03:33:30.416Z,3.96
2022-11-24T03:36:01.090Z,3.96
2022-11-24T03:38:31.736Z,4.14
2022-11-24T03:41:02.404Z,3.85
2022-11-24T03:43:32.713Z,3.92
2022-11-24T03:46:03.544Z,3.8
2022-11-24T03:48:34.104Z,3.91
2022-11-24T03:51:04.837Z,3.86
2022-11-24T03:53:35.101Z,3.87
2022-11-24T03:56:05.775Z,3.95
2022-11-24T03:58:36.451Z,4
2022-11-24T04:01:06.832Z,3.93
2022-11-24T04:03:37.487Z,3.95
2022-11-24T04:06:08.185Z,4.01
2022-11-24T04:08:38.471Z,3.97
2022-11-24T04:11:09.145Z,3.98
2022-11-24T04:13:39.882Z,3.89
2022-11-24T04:16:10.570Z,3.89
2022-11-24T04:18:41.136Z,3.97
2022-11-24T04:21:11.890Z,3.79
2022-11-24T04:23:42.534Z,4.01
2022-11-24T04:26:13.113Z,3.91
2022-11-24T04:28:43.757Z,3.85
2022-11-24T04:31:14.481Z,3.9
2022-11-24T04:33:45.092Z,3.81
2022-11-24T04:36:15.759Z,3.86
2022-11-24T04:39:24.143Z,3.84
2022-11-24T04:41:17.075Z,3.89
2022-11-24T04:43:47.831Z,3.77
2022-11-24T04:46:18.501Z,3.92
2022-11-24T04:48:49.032Z,3.96
2022-11-24T04:51:19.707Z,3.84
2022-11-24T04:53:50.336Z,3.67
2022-11-24T04:56:20.996Z,3.6
2022-11-24T04:58:51.647Z,3.71
2022-11-24T05:01:22.384Z,3.85
2022-11-24T05:03:53.003Z,3.84
2022-11-24T05:06:23.628Z,3.86
2022-11-24T05:08:54.285Z,4.09
2022-11-24T05:11:24.940Z,4.11
2022-11-24T05:13:55.593Z,4.25
2022-11-24T05:16:26.297Z,4.34
2022-11-24T05:18:56.902Z,4.26
2022-11-24T05:21:27.574Z,4.26
2022-11-24T05:23:58.223Z,3.98
2022-11-24T05:26:28.866Z,3.89
2022-11-24T05:28:59.512Z,4.01
2022-11-24T05:31:29.921Z,4.15
2022-11-24T05:34:00.547Z,4.18
2022-11-24T05:36:31.239Z,4.29
2022-11-24T05:39:01.900Z,4.38
2022-11-24T05:41:32.566Z,4.7
2022-11-24T05:44:03.008Z,4.72
2022-11-24T05:46:33.725Z,4.65
2022-11-24T05:49:04.320Z,4.67
2022-11-24T05:51:34.994Z,4.65
2022-11-24T05:54:05.651Z,4.62
2022-11-24T05:56:36.327Z,4.57
2022-11-24T05:59:09.975Z,4.64
2022-11-24T06:01:37.758Z,4.64
2022-11-24T06:04:07.986Z,4.74
2022-11-24T06:06:38.681Z,4.66
2022-11-24T06:09:09.329Z,4.6
2022-11-24T06:11:39.724Z,4.41
2022-11-24T06:14:11.436Z,4.34
2022-11-24T06:16:41.177Z,4.03
2022-11-24T06:19:11.805Z,4.19
2022-11-24T06:21:42.457Z,4.34
2022-11-24T06:24:13.035Z,4.44
2022-11-24T06:26:43.711Z,4.47
2022-11-24T06:29:14.364Z,4.41
2022-11-24T06:31:45.083Z,4.26
2022-11-24T06:34:15.673Z,4.46
2022-11-24T06:36:46.477Z,4.67
2022-11-24T06:39:16.977Z,4.68
2022-11-24T06:41:47.735Z,4.61
2022-11-24T06:44:18.310Z,4.45
2022-11-24T06:46:48.958Z,4.34
2022-11-24T06:49:19.016Z,4.31
2022-11-24T06:51:49.376Z,4.04
2022-11-24T06:54:20.056Z,4.03
2022-11-24T06:56:50.401Z,3.92
2022-11-24T06:59:21.050Z,4.18
2022-11-24T07:01:51.736Z,4.11
2022-11-24T07:04:22.359Z,4.12
2022-11-24T07:06:53.167Z,4.11
2022-11-24T07:09:23.743Z,4.21
2022-11-24T07:11:54.310Z,4.09
2022-11-24T07:14:24.963Z,4.21
2022-11-24T07:16:55.747Z,4.29
2022-11-24T07:19:25.921Z,4.25
2022-11-24T07:21:56.589Z,4.09
2022-11-24T07:24:27.323Z,4.18
2022-11-24T07:26:57.860Z,4.22
2022-11-24T07:29:28.488Z,4.22
2022-11-24T07:32:05.028Z,4.08
2022-11-24T07:34:29.768Z,4.06
2022-11-24T07:37:00.414Z,4.1
2022-11-24T07:39:31.038Z,4
2022-11-24T07:42:01.681Z,4.03
2022-11-24T07:44:32.634Z,4.05
2022-11-24T07:47:03.015Z,4.08
2022-11-24T07:49:33.300Z,4.22
2022-11-24T07:52:03.930Z,4.27
2022-11-24T07:54:34.746Z,4.26
2022-11-24T07:57:05.248Z,4.35
2022-11-24T07:59:35.810Z,4.37
2022-11-24T08:02:06.566Z,4.31
2022-11-24T08:04:37.128Z,4.25
2022-11-24T08:07:07.196Z,4.25
2022-11-24T08:09:37.728Z,4.33
2022-11-24T08:12:08.385Z,4.4
2022-11-24T08:14:39.037Z,4.53
2022-11-24T08:17:09.887Z,4.57
2022-11-24T08:19:40.318Z,4.33
2022-11-24T08:22:11.042Z,4.47
2022-11-24T08:24:41.561Z,4.44
2022-11-24T08:27:12.324Z,4.49
2022-11-24T08:29:42.807Z,4.31
2022-11-24T08:32:18.846Z,4.3
2022-11-24T08:34:44.054Z,4.33
2022-11-24T08:37:14.704Z,4.39
2022-11-24T08:39:45.332Z,4.24
2022-11-24T08:42:15.977Z,4.26
2022-11-24T08:44:46.615Z,4.25
2022-11-24T08:47:17.296Z,4.28
2022-11-24T08:49:47.945Z,4.18
2022-11-24T08:52:18.616Z,4.14
2022-11-24T08:54:49.232Z,4.24
2022-11-24T08:57:21.907Z,4.17
2022-11-24T08:59:50.531Z,4.13
2022-11-24T09:02:21.187Z,4.43
2022-11-24T09:04:51.975Z,4.22
2022-11-24T09:07:22.510Z,4.1
2022-11-24T09:09:53.255Z,3.97
2022-11-24T09:12:23.709Z,3.8
2022-11-24T09:14:54.346Z,3.82
2022-11-24T09:17:24.731Z,3.78
2022-11-24T09:19:55.335Z,3.93
2022-11-24T09:22:25.977Z,3.89
2022-11-24T09:24:56.588Z,3.84
2022-11-24T09:27:26.936Z,3.7
2022-11-24T09:29:57.554Z,3.64
2022-11-24T09:32:28.193Z,3.49
2022-11-24T09:34:58.815Z,3.71
2022-11-24T09:37:32.598Z,3.78
2022-11-24T09:40:00.135Z,3.72
2022-11-24T09:42:30.433Z,3.41
2022-11-24T09:45:01.008Z,3.5
2022-11-24T09:47:31.645Z,3.71
2022-11-24T09:50:02.310Z,3.81
2022-11-24T09:52:32.922Z,3.71
2022-11-24T09:55:03.543Z,3.56
2022-11-24T09:57:37.250Z,3.54
2022-11-24T10:00:04.782Z,3.67
2022-11-24T10:02:35.413Z,3.73
2022-11-24T10:05:05.771Z,3.48
2022-11-24T10:07:36.540Z,3.51
2022-11-24T10:10:06.983Z,3.59
2022-11-24T10:12:37.612Z,3.7
2022-11-24T10:15:08.225Z,3.7
2022-11-24T10:17:38.582Z,3.67
2022-11-24T10:20:09.208Z,3.69
2022-11-24T10:22:39.937Z,3.42
2022-11-24T10:25:10.114Z,3.35
2022-11-24T10:27:40.774Z,3.27
2022-11-24T10:30:11.396Z,3.25
2022-11-24T10:32:42.064Z,3.4
2022-11-24T10:35:12.697Z,3.35
2022-11-24T10:37:43.373Z,3.29
2022-11-24T10:40:33.336Z,3.54
2022-11-24T10:42:44.655Z,3.4
2022-11-24T10:45:15.289Z,3.34
2022-11-24T10:47:45.649Z,3.33
2022-11-24T10:50:16.324Z,3.5
2022-11-24T10:52:46.663Z,3.28
2022-11-24T10:55:17.389Z,3.32
2022-11-24T10:57:47.936Z,3.34
2022-11-24T11:00:18.586Z,3.25
2022-11-24T11:02:49.266Z,3.34
2022-11-24T11:05:19.846Z,3.35
2022-11-24T11:07:50.590Z,3.31
2022-11-24T11:10:21.103Z,3.26
2022-11-24T11:12:51.603Z,3.43
2022-11-24T11:15:22.027Z,3.31
2022-11-24T11:17:52.654Z,3.29
2022-11-24T11:20:22.991Z,3.39
2022-11-24T11:22:53.025Z,3.29
2022-11-24T11:25:23.639Z,3.51
2022-11-24T11:27:54.279Z,3.27
2022-11-24T11:35:25.601Z,3.27
2022-11-24T11:37:56.274Z,3.41
2022-11-24T11:40:26.512Z,3.27
2022-11-24T11:45:27.568Z,3.59
2022-11-24T11:47:58.061Z,3.57
2022-11-24T11:50:28.852Z,3.43
2022-11-24T11:52:59.271Z,3.23
2022-11-24T11:55:29.952Z,3.4
2022-11-24T11:58:00.466Z,3.25
2022-11-24T12:00:31.067Z,3.22
2022-11-24T12:03:01.801Z,3.21
2022-11-24T12:05:31.997Z,3.39
2022-11-24T12:08:09.238Z,3.16
2022-11-24T12:10:32.845Z,3.42
2022-11-24T12:13:03.452Z,3.29
2022-11-24T12:15:34.046Z,3.34
2022-11-24T12:18:04.509Z,3.39
2022-11-24T12:20:35.261Z,3.47
2022-11-24T12:23:05.882Z,3.45
2022-11-24T12:25:36.521Z,3.41
2022-11-24T12:28:07.367Z,3.45
2022-11-24T12:30:37.879Z,3.31
2022-11-24T12:33:07.924Z,3.3
2022-11-24T12:35:38.257Z,3.32
2022-11-24T12:38:08.855Z,3.38
2022-11-24T12:40:43.520Z,3.4
2022-11-24T12:43:09.949Z,3.3
2022-11-24T12:45:40.634Z,3.21
2022-11-24T12:48:11.152Z,3.41
2022-11-24T12:50:41.167Z,3.21
2022-11-24T12:53:11.434Z,3.29
2022-11-24T12:55:42.034Z,3.23
2022-11-24T12:58:12.619Z,3.31
2022-11-24T13:00:43.317Z,3.32
2022-11-24T13:03:13.905Z,3.5
2022-11-24T13:05:44.128Z,3.2
2022-11-24T13:08:14.739Z,3.32
2022-11-24T13:10:57.202Z,3.17
2022-11-24T13:13:15.662Z,3.22
2022-11-24T13:15:46.415Z,3.36
2022-11-24T13:18:16.680Z,3.58
2022-11-24T13:20:46.823Z,3.57
2022-11-24T13:23:17.157Z,3.34
2022-11-24T13:25:47.748Z,3.41
2022-11-24T13:28:28.361Z,3.62
2022-11-24T13:30:48.576Z,3.49
2022-11-24T13:33:21.684Z,3.55
2022-11-24T13:35:49.763Z,3.75
2022-11-24T13:38:20.084Z,3.7
2022-11-24T13:41:21.083Z,3.76
2022-11-24T13:43:20.975Z,3.57
2022-11-24T13:45:51.199Z,3.61
2022-11-24T13:48:22.662Z,3.46
2022-11-24T13:50:52.382Z,3.28
2022-11-24T13:53:22.641Z,3.36
2022-11-24T13:55:53.287Z,3.44
2022-11-24T13:58:23.906Z,3.37
2022-11-24T14:00:58.247Z,3.52
2022-11-24T14:03:25.183Z,3.52
2022-11-24T14:05:55.667Z,3.54
2022-11-24T14:08:26.006Z,3.51
2022-11-24T14:10:56.574Z,3.69
2022-11-24T14:13:26.825Z,3.64
2022-11-24T14:15:57.511Z,3.61
2022-11-24T14:18:27.736Z,3.37
2022-11-24T14:20:58.316Z,3.43
2022-11-24T14:23:28.935Z,3.34
2022-11-24T14:25:59.500Z,3.46
2022-11-24T14:28:30.192Z,3.53
2022-11-24T14:31:00.778Z,3.47
2022-11-24T14:33:31.300Z,3.71
2022-11-24T14:36:01.997Z,3.75
2022-11-24T14:38:32.530Z,3.62
2022-11-24T14:41:05.743Z,3.71
2022-11-24T14:43:33.677Z,3.81
2022-11-24T14:46:04.301Z,3.58
2022-11-24T14:48:34.874Z,3.81
2022-11-24T14:51:05.575Z,3.8
2022-11-24T14:53:35.788Z,3.74
2022-11-24T14:56:06.430Z,3.91
2022-11-24T14:58:42.004Z,4.05
2022-11-24T15:01:07.783Z,3.99
2022-11-24T15:03:38.192Z,3.94
2022-11-24T15:06:08.451Z,3.92
2022-11-24T15:08:39.027Z,3.85
2022-11-24T15:11:09.623Z,3.74
2022-11-24T15:13:40.222Z,3.93
2022-11-24T15:16:10.619Z,3.77
2022-11-24T15:18:41.135Z,3.86
2022-11-24T15:21:15.609Z,3.78
2022-11-24T15:23:42.339Z,3.91
2022-11-24T15:26:12.959Z,4.5
2022-11-24T15:28:43.584Z,4.08
2022-11-24T15:31:14.421Z,4.01
2022-11-24T15:33:44.493Z,4.2
2022-11-24T15:36:15.118Z,4.11
2022-11-24T15:38:45.729Z,3.94
2022-11-24T15:41:16.406Z,4.03
2022-11-24T15:43:46.938Z,4.01
2022-11-24T15:46:17.654Z,4.03
2022-11-24T15:48:48.143Z,3.9
2022-11-24T15:51:18.767Z,3.85
2022-11-24T15:53:49.361Z,4.07
2022-11-24T15:56:19.962Z,3.86
2022-11-24T15:58:50.562Z,4.03
2022-11-24T16:01:21.255Z,4.14
2022-11-24T16:03:51.794Z,4.06
2022-11-24T16:06:25.054Z,4.13
2022-11-24T16:08:53.039Z,4.18
2022-11-24T16:11:23.691Z,4.09
2022-11-24T16:13:54.662Z,4.09
2022-11-24T16:16:24.880Z,4.07
2022-11-24T16:18:55.210Z,4.21
2022-11-24T16:21:25.578Z,4.34
2022-11-24T16:23:56.204Z,4.31
2022-11-24T16:26:26.837Z,4.13
2022-11-24T16:28:57.760Z,4.05
2022-11-24T16:31:28.627Z,4.05
2022-11-24T16:33:58.990Z,4.02
2022-11-24T16:36:29.653Z,3.98
2022-11-24T16:39:00.297Z,3.9
2022-11-24T16:41:30.880Z,3.86
2022-11-24T16:44:01.565Z,3.76
2022-11-24T16:46:32.267Z,3.87
2022-11-24T16:49:02.831Z,3.91
2022-11-24T16:51:35.198Z,3.89
2022-11-24T16:54:03.688Z,3.79
2022-11-24T16:56:34.393Z,3.85
2022-11-24T16:59:04.952Z,3.74
2022-11-24T17:01:35.708Z,3.82
2022-11-24T17:04:11.034Z,3.84
2022-11-24T17:06:36.943Z,3.88
2022-11-24T17:09:07.492Z,3.99
2022-11-24T17:11:38.005Z,3.97
2022-11-24T17:14:08.312Z,4.05
2022-11-24T17:16:38.985Z,4.07
2022-11-24T17:19:09.570Z,4.12
2022-11-24T17:21:40.200Z,4.16
2022-11-24T17:24:10.814Z,4.21
2022-11-24T17:26:44.744Z,4.25
2022-11-24T17:29:11.755Z,4.22
2022-11-24T17:31:42.336Z,4.07
2022-11-24T17:34:12.778Z,4.1
2022-11-24T17:36:43.437Z,4.04
2022-11-24T17:39:13.867Z,4.12
2022-11-24T17:41:44.458Z,3.99
2022-11-24T17:44:15.098Z,3.97
2022-11-24T17:46:45.755Z,4.11
2022-11-24T17:49:16.044Z,3.98
2022-11-24T17:51:46.721Z,3.99
2022-11-24T17:54:45.273Z,3.94
2022-11-24T17:56:47.738Z,3.92
2022-11-24T17:59:18.105Z,3.82
2022-11-24T18:01:48.759Z,3.81
2022-11-24T18:04:19.415Z,3.93
2022-11-24T18:06:50.084Z,3.84
2022-11-24T18:09:20.734Z,3.97
2022-11-24T18:11:51.402Z,4.02
2022-11-24T18:14:22.048Z,3.9
2022-11-24T18:16:52.841Z,3.9
2022-11-24T18:19:23.389Z,3.86
2022-11-24T18:21:54.076Z,3.87
2022-11-24T18:24:24.739Z,3.81
2022-11-24T18:26:55.411Z,3.81
2022-11-24T18:29:25.715Z,3.81
2022-11-24T18:31:56.439Z,3.84
2022-11-24T18:34:27.047Z,3.85
2022-11-24T18:36:57.733Z,3.86
2022-11-24T18:39:28.391Z,3.86
2022-11-24T18:41:58.795Z,3.84
2022-11-24T18:44:29.456Z,3.95
2022-11-24T18:47:00.144Z,3.88
2022-11-24T18:49:30.797Z,3.78
2022-11-24T18:52:01.500Z,3.83
2022-11-24T18:54:32.285Z,3.78
2022-11-24T18:57:03.723Z,3.82
2022-11-24T18:59:33.308Z,3.78
2022-11-24T19:02:04.023Z,3.82
2022-11-24T19:04:34.569Z,3.75
2022-11-24T19:07:04.921Z,3.81
2022-11-24T19:09:35.630Z,3.78
2022-11-24T19:12:06.552Z,3.82
2022-11-24T19:14:37.200Z,3.9
2022-11-24T19:17:07.629Z,3.79
2022-11-24T19:19:38.336Z,3.8
2022-11-24T19:22:08.487Z,3.78
2022-11-24T19:24:39.094Z,3.81
2022-11-24T19:27:09.841Z,3.87
2022-11-24T19:29:43.146Z,3.87
2022-11-24T19:32:11.321Z,3.82
2022-11-24T19:34:41.954Z,4.06
2022-11-24T19:37:12.604Z,3.97
2022-11-24T19:39:43.329Z,4.26
2022-11-24T19:42:13.922Z,4.24
2022-11-24T19:44:44.608Z,4.38
2022-11-24T19:47:15.313Z,4.64
2022-11-24T19:49:45.983Z,4.63
2022-11-24T19:52:16.694Z,4.66
2022-11-24T19:54:47.352Z,4.5
2022-11-24T19:57:18.162Z,4.31
2022-11-24T19:59:48.779Z,4.23
2022-11-24T20:02:19.078Z,4.29
2022-11-24T20:04:49.712Z,4.29
2022-11-24T20:07:20.494Z,4.42
2022-11-24T20:09:51.053Z,4.53
2022-11-24T20:12:21.742Z,4.58
2022-11-24T20:14:52.408Z,4.7
2022-11-24T20:17:23.097Z,4.69
2022-11-24T20:19:53.424Z,4.63
2022-11-24T20:22:23.918Z,4.43
2022-11-24T20:24:54.585Z,4.34
2022-11-24T20:27:25.268Z,4.06
2022-11-24T20:29:55.593Z,3.94
2022-11-24T20:32:26.281Z,4.05
2022-11-24T20:34:56.956Z,3.99
2022-11-24T20:37:27.382Z,4.08
2022-11-24T20:39:58.034Z,4.21
2022-11-24T20:42:28.722Z,4.41
2022-11-24T20:44:59.129Z,4.38
2022-11-24T20:47:29.860Z,4.36
2022-11-24T20:50:00.496Z,4.31
2022-11-24T20:52:31.202Z,4.23
2022-11-24T20:55:01.527Z,4.2
2022-11-24T20:57:31.942Z,4.17
2022-11-24T21:00:02.705Z,4.21
2022-11-24T21:02:33.248Z,4.36
2022-11-24T21:05:03.699Z,4.3
2022-11-24T21:07:34.048Z,4.38
2022-11-24T21:10:04.465Z,4.41
2022-11-24T21:12:34.832Z,4.4
2022-11-24T21:15:05.670Z,4.32
2022-11-24T21:17:36.408Z,4.26
2022-11-24T21:20:07.042Z,4.19
2022-11-24T21:22:37.776Z,4.17
2022-11-24T21:25:08.180Z,4.12
2022-11-24T21:27:38.896Z,4.12
2022-11-24T21:30:09.612Z,4.1
2022-11-24T21:32:40.427Z,4.26
2022-11-24T21:35:11.044Z,4.47
2022-11-24T21:37:41.371Z,4.97
2022-11-24T21:40:11.720Z,4.5
2022-11-24T21:42:42.543Z,4.44
2022-11-24T21:45:12.546Z,4.4
2022-11-24T21:47:43.208Z,4.27
2022-11-24T21:50:13.623Z,4.16
2022-11-24T21:52:44.039Z,4.16
2022-11-24T21:55:14.673Z,4.15
2022-11-24T21:57:45.397Z,4.15
2022-11-24T22:00:16.126Z,4.16
2022-11-24T22:02:46.628Z,4.12
2022-11-24T22:05:17.237Z,4.22
2022-11-24T22:07:48.099Z,4.27
2022-11-24T22:10:18.670Z,4.31
2022-11-24T22:12:49.104Z,4.26
2022-11-24T22:15:19.460Z,4.31
2022-11-24T22:17:49.909Z,4.38
2022-11-24T22:20:20.600Z,4.27
2022-11-24T22:22:51.045Z,4.38
2022-11-24T22:25:21.394Z,4.29
2022-11-24T22:27:52.119Z,4.16
2022-11-24T22:30:22.964Z,4.14
2022-11-24T22:32:53.267Z,4.1
2022-11-24T22:35:23.985Z,4.12
2022-11-24T22:37:54.438Z,4.11
2022-11-24T22:40:25.132Z,4.04
2022-11-24T22:45:26.715Z,4.18
2022-11-24T22:47:57.320Z,4.29
2022-11-24T22:50:28.026Z,4.31
2022-11-24T22:52:58.126Z,4.31
2022-11-24T22:55:28.273Z,4.26
2022-11-24T22:57:59.007Z,4.17
2022-11-24T23:00:29.717Z,4.17
2022-11-24T23:03:00.493Z,4.03
2022-11-24T23:05:31.154Z,3.98
2022-11-24T23:08:01.900Z,4.03
2022-11-24T23:10:32.334Z,4.03
2022-11-24T23:13:02.704Z,3.96
2022-11-24T23:15:33.416Z,3.97
2022-11-24T23:18:04.172Z,3.92
2022-11-24T23:20:34.993Z,3.91
2022-11-24T23:23:05.354Z,3.91
2022-11-24T23:25:36.075Z,3.91
2022-11-24T23:28:06.545Z,3.93
2022-11-24T23:30:36.922Z,3.95
2022-11-24T23:33:07.729Z,3.89
2022-11-24T23:35:38.098Z,3.99
2022-11-24T23:38:08.849Z,4
2022-11-24T23:40:39.557Z,3.99
2022-11-24T23:43:10.023Z,3.93
2022-11-24T23:45:40.801Z,3.94
2022-11-24T23:48:11.497Z,3.91
2022-11-24T23:50:42.219Z,3.89
2022-11-24T23:53:13.141Z,3.89
2022-11-24T23:55:43.681Z,3.79
2022-11-24T23:58:14.397Z,3.78
